Terminal Aerodrome Forecast
Issued by NWS

Home | Current Version | Previous Version | Graphics & Text | Print | Product List | Glossary On
Versions: 1 2 3 4 5 6 7 8 9 10 11 12 13 14 15 16 17 18 19 20
000
FTUS43 KTOP 011100
TAFMHK
TAF
KMHK 011126Z 0112/0212 27005KT P6SM FEW015 BKN040
     FM011700 30004KT P6SM BKN020
     FM020100 36003KT P6SM BKN250=

USA.gov is the U.S. government's official web portal to all federal, state and local government web resources and services.